createdAt,value
2023-01-10T00:00:25.215Z,6.18
2023-01-10T00:02:55.661Z,6.13
2023-01-10T00:05:25.669Z,6.19
2023-01-10T00:07:55.570Z,6.09
2023-01-10T00:10:25.957Z,6.11
2023-01-10T00:13:10.851Z,6.17
2023-01-10T00:15:41.151Z,6.20
2023-01-10T00:18:11.367Z,6.27
2023-01-10T00:20:42.035Z,6.33
2023-01-10T00:23:11.908Z,6.27
2023-01-10T00:25:42.441Z,6.17
2023-01-10T00:28:20.227Z,6.30
2023-01-10T00:30:55.142Z,6.32
2023-01-10T00:33:26.450Z,6.19
2023-01-10T00:35:56.288Z,6.20
2023-01-10T00:38:26.335Z,6.17
2023-01-10T00:40:56.198Z,6.12
2023-01-10T00:43:41.597Z,6.23
2023-01-10T00:46:11.604Z,6.14
2023-01-10T00:48:42.152Z,6.15
2023-01-10T00:51:11.946Z,6.16
2023-01-10T00:53:41.840Z,6.05
2023-01-10T00:56:11.715Z,6.06
2023-01-10T00:58:44.879Z,6.08
2023-01-10T01:01:14.968Z,6.11
2023-01-10T01:03:44.835Z,6.04
2023-01-10T01:06:14.724Z,6.01
2023-01-10T01:08:44.578Z,6.05
2023-01-10T01:11:14.409Z,6.17
2023-01-10T01:13:46.854Z,6.02
2023-01-10T01:16:16.692Z,6.06
2023-01-10T01:18:46.748Z,5.93
2023-01-10T01:21:16.606Z,5.96
2023-01-10T01:23:46.587Z,6.12
2023-01-10T01:26:16.396Z,6.05
2023-01-10T01:28:48.841Z,6.02
2023-01-10T01:31:18.919Z,6.08
2023-01-10T01:33:49.187Z,6.05
2023-01-10T01:36:20.142Z,6.04
2023-01-10T01:38:49.981Z,6.04
2023-01-10T01:41:32.298Z,6.06
2023-01-10T01:44:07.954Z,6.09
2023-01-10T01:46:41.990Z,6.08
2023-01-10T01:49:21.519Z,6.16
2023-01-10T01:51:56.958Z,6.18
2023-01-10T01:54:27.067Z,6.06
2023-01-10T01:57:01.702Z,6.13
2023-01-10T01:59:39.606Z,6.07
2023-01-10T02:02:17.540Z,6.02
2023-01-10T02:04:54.446Z,6.10
2023-01-10T02:07:28.858Z,6.09
2023-01-10T02:10:05.113Z,6.07
2023-01-10T02:12:36.349Z,6.10
2023-01-10T02:15:10.631Z,6.04
2023-01-10T02:17:41.161Z,6.00
2023-01-10T02:20:16.458Z,6.10
2023-01-10T02:23:19.127Z,6.00
2023-01-10T02:26:22.928Z,5.94
2023-01-10T02:29:27.354Z,5.95
2023-01-10T02:32:35.482Z,5.96
2023-01-10T02:35:28.166Z,6.05
2023-01-10T02:38:10.208Z,6.01
2023-01-10T02:40:52.575Z,5.85
2023-01-10T02:43:28.509Z,5.91
2023-01-10T02:46:02.901Z,5.94
2023-01-10T02:48:35.455Z,5.86
2023-01-10T02:51:11.290Z,5.80
2023-01-10T02:53:47.187Z,5.80
2023-01-10T02:56:51.356Z,5.92
2023-01-10T03:00:02.161Z,5.86
2023-01-10T03:03:04.739Z,5.83
2023-01-10T03:05:53.071Z,5.94
2023-01-10T03:08:36.653Z,5.81
2023-01-10T03:11:09.947Z,5.87
2023-01-10T03:13:50.060Z,5.87
2023-01-10T03:16:26.165Z,5.90
2023-01-10T03:19:01.301Z,5.70
2023-01-10T03:21:36.897Z,5.68
2023-01-10T03:24:13.579Z,5.92
2023-01-10T03:26:54.802Z,5.90
2023-01-10T03:29:32.367Z,5.87
2023-01-10T03:32:09.016Z,5.92
2023-01-10T03:34:39.594Z,5.69
2023-01-10T03:37:20.467Z,5.53
2023-01-10T03:40:01.867Z,5.59
2023-01-10T03:43:00.372Z,5.51
2023-01-10T03:45:33.943Z,5.76
2023-01-10T03:48:08.069Z,5.92
2023-01-10T03:50:40.768Z,5.69
2023-01-10T03:53:15.836Z,5.70
2023-01-10T03:55:48.243Z,5.92
2023-01-10T03:58:21.909Z,5.83
2023-01-10T04:00:52.464Z,5.72
2023-01-10T04:03:22.624Z,5.83
2023-01-10T04:05:52.463Z,5.91
2023-01-10T04:08:24.963Z,5.79
2023-01-10T04:10:54.882Z,5.82
2023-01-10T04:13:24.720Z,5.88
2023-01-10T04:15:54.560Z,5.94
2023-01-10T04:18:24.415Z,5.98
2023-01-10T04:20:54.244Z,5.91
2023-01-10T04:23:26.675Z,6.00
2023-01-10T04:25:56.503Z,6.09
2023-01-10T04:28:26.471Z,6.07
2023-01-10T04:30:56.303Z,5.96
2023-01-10T04:33:26.169Z,6.10
2023-01-10T04:35:55.997Z,5.94
2023-01-10T04:38:28.410Z,5.94
2023-01-10T04:40:59.672Z,5.84
2023-01-10T04:43:29.544Z,5.86
2023-01-10T04:45:59.442Z,5.87
2023-01-10T04:48:29.829Z,5.79
2023-01-10T04:50:59.726Z,5.90
2023-01-10T04:53:32.232Z,5.93
2023-01-10T04:56:06.995Z,5.88
2023-01-10T04:58:38.167Z,6.01
2023-01-10T05:01:11.784Z,5.96
2023-01-10T05:03:42.118Z,5.92
2023-01-10T05:06:12.746Z,5.93
2023-01-10T05:08:45.281Z,5.88
2023-01-10T05:11:15.571Z,5.98
2023-01-10T05:13:47.839Z,6.04
2023-01-10T05:16:19.115Z,5.77
2023-01-10T05:18:49.047Z,5.86
2023-01-10T05:21:19.440Z,5.96
2023-01-10T05:23:51.845Z,5.82
2023-01-10T05:26:26.107Z,5.80
2023-01-10T05:28:55.965Z,5.97
2023-01-10T05:31:25.841Z,5.92
2023-01-10T05:33:55.709Z,5.88
2023-01-10T05:36:25.587Z,5.74
2023-01-10T05:38:58.124Z,5.70
2023-01-10T05:41:28.000Z,5.88
2023-01-10T05:43:57.841Z,5.83
2023-01-10T05:46:27.746Z,5.75
2023-01-10T05:48:57.623Z,5.71
2023-01-10T05:51:28.460Z,5.81
2023-01-10T05:54:01.026Z,5.80
2023-01-10T05:56:30.890Z,5.81
2023-01-10T05:59:17.035Z,5.74
2023-01-10T06:01:50.545Z,5.75
2023-01-10T06:04:20.634Z,5.72
2023-01-10T06:06:50.628Z,5.83
2023-01-10T06:09:23.123Z,5.84
2023-01-10T06:11:53.018Z,5.79
2023-01-10T06:14:22.888Z,5.79
2023-01-10T06:16:52.753Z,5.74
2023-01-10T06:19:22.642Z,5.76
2023-01-10T06:21:52.452Z,5.81
2023-01-10T06:24:24.855Z,5.78
2023-01-10T06:26:54.746Z,5.81
2023-01-10T06:29:25.095Z,5.77
2023-01-10T06:31:54.947Z,5.82
2023-01-10T06:34:24.833Z,5.77
2023-01-10T06:36:54.704Z,5.76
2023-01-10T06:39:27.183Z,5.78
2023-01-10T06:41:57.037Z,5.87
2023-01-10T06:44:27.175Z,5.75
2023-01-10T06:46:57.032Z,5.86
2023-01-10T06:49:26.917Z,5.88
2023-01-10T06:51:56.751Z,5.83
2023-01-10T06:54:29.153Z,5.80
2023-01-10T06:56:58.973Z,5.83
2023-01-10T06:59:28.939Z,5.73
2023-01-10T07:01:58.909Z,5.62
2023-01-10T07:04:28.859Z,5.50
2023-01-10T07:06:58.743Z,5.47
2023-01-10T07:09:31.371Z,5.53
2023-01-10T07:12:01.334Z,5.53
2023-01-10T07:14:31.197Z,5.67
2023-01-10T07:17:01.009Z,5.72
2023-01-10T07:19:30.926Z,5.66
2023-01-10T07:22:00.774Z,5.67
2023-01-10T07:24:33.195Z,5.81
2023-01-10T07:27:03.133Z,5.79
2023-01-10T07:29:33.004Z,5.83
2023-01-10T07:32:02.863Z,5.83
2023-01-10T07:34:32.731Z,5.98
2023-01-10T07:37:03.943Z,5.99
2023-01-10T07:39:36.467Z,5.87
2023-01-10T07:42:06.545Z,5.75
2023-01-10T07:44:36.402Z,5.89
2023-01-10T07:47:06.443Z,5.82
2023-01-10T07:49:36.324Z,5.82
2023-01-10T07:52:08.941Z,5.86
2023-01-10T07:54:41.408Z,5.76
2023-01-10T07:57:11.264Z,5.95
2023-01-10T07:59:41.136Z,5.80
2023-01-10T08:02:12.672Z,5.96
2023-01-10T08:04:42.604Z,5.90
2023-01-10T08:07:15.376Z,6.03
2023-01-10T08:09:47.851Z,5.85
2023-01-10T08:12:17.782Z,6.05
2023-01-10T08:14:47.682Z,6.00
2023-01-10T08:17:17.578Z,6.02
2023-01-10T08:19:47.670Z,5.93
2023-01-10T08:22:17.573Z,5.96
2023-01-10T08:24:50.046Z,5.91
2023-01-10T08:27:20.053Z,6.18
2023-01-10T08:29:49.925Z,6.20
2023-01-10T08:32:19.889Z,6.08
2023-01-10T08:34:49.717Z,6.08
2023-01-10T08:37:19.641Z,6.20
2023-01-10T08:39:52.164Z,6.15
2023-01-10T08:42:22.068Z,6.26
2023-01-10T08:44:52.023Z,6.13
2023-01-10T08:47:21.883Z,6.20
2023-01-10T08:49:51.801Z,6.15
2023-01-10T08:52:21.695Z,6.24
2023-01-10T08:54:54.180Z,6.23
2023-01-10T08:57:24.086Z,6.17
2023-01-10T08:59:53.946Z,6.39
2023-01-10T09:02:23.871Z,6.25
2023-01-10T09:04:53.788Z,6.33
2023-01-10T09:07:23.804Z,6.58
2023-01-10T09:09:56.246Z,6.40
2023-01-10T09:12:38.578Z,6.26
2023-01-10T09:15:09.859Z,6.39
2023-01-10T09:17:39.831Z,6.35
2023-01-10T09:20:11.485Z,6.54
2023-01-10T09:22:42.204Z,6.47
2023-01-10T09:25:14.694Z,6.63
2023-01-10T09:27:44.563Z,6.47
2023-01-10T09:30:15.611Z,6.48
2023-01-10T09:32:45.523Z,6.43
2023-01-10T09:35:15.418Z,6.50
2023-01-10T09:37:45.272Z,6.42
2023-01-10T09:40:23.591Z,6.71
2023-01-10T09:43:09.298Z,6.76
2023-01-10T09:45:50.486Z,6.67
2023-01-10T09:48:29.648Z,6.68
2023-01-10T09:51:19.982Z,6.96
2023-01-10T09:53:53.745Z,6.81
2023-01-10T09:56:28.546Z,6.56
2023-01-10T09:59:03.148Z,6.72
2023-01-10T10:01:38.816Z,6.95
2023-01-10T10:04:23.420Z,6.82
2023-01-10T10:06:54.673Z,6.64
2023-01-10T10:09:28.713Z,6.94
2023-01-10T10:12:21.184Z,7.02
2023-01-10T10:15:05.303Z,6.95
2023-01-10T10:17:46.452Z,6.61
2023-01-10T10:20:30.738Z,6.81
2023-01-10T10:23:20.718Z,7.19
2023-01-10T10:26:04.437Z,7.14
2023-01-10T10:29:12.147Z,6.87
2023-01-10T10:32:03.791Z,7.17
2023-01-10T10:34:41.371Z,6.87
2023-01-10T10:37:19.199Z,7.09
2023-01-10T10:39:55.206Z,7.10
2023-01-10T10:42:31.096Z,6.94
2023-01-10T10:45:08.821Z,6.90
2023-01-10T10:47:39.617Z,7.11
2023-01-10T10:50:24.811Z,7.20
2023-01-10T10:52:54.820Z,6.96
2023-01-10T10:55:32.783Z,6.95
2023-01-10T10:58:05.056Z,7.03
2023-01-10T11:00:37.842Z,6.95
2023-01-10T11:03:24.285Z,7.08
2023-01-10T11:05:54.767Z,7.44
2023-01-10T11:08:25.748Z,7.29
2023-01-10T11:10:58.067Z,7.31
2023-01-10T11:13:43.366Z,7.47
2023-01-10T11:16:31.502Z,7.51
2023-01-10T11:19:20.283Z,7.53
2023-01-10T11:21:54.991Z,7.63
2023-01-10T11:24:31.450Z,7.80
2023-01-10T11:27:05.464Z,8.00
2023-01-10T11:29:43.227Z,8.13
2023-01-10T11:32:19.990Z,8.06
2023-01-10T11:34:59.110Z,8.24
2023-01-10T11:37:32.658Z,8.17
2023-01-10T11:40:20.240Z,8.68
2023-01-10T11:42:51.000Z,8.42
2023-01-10T11:45:31.880Z,8.53
2023-01-10T11:48:11.798Z,8.39
2023-01-10T11:50:46.763Z,8.25
2023-01-10T11:53:39.246Z,8.34
2023-01-10T11:56:14.043Z,8.01
2023-01-10T11:58:45.785Z,8.23
2023-01-10T12:01:34.664Z,7.88
2023-01-10T12:04:08.137Z,7.70
2023-01-10T12:06:38.112Z,7.93
2023-01-10T12:09:10.177Z,7.79
2023-01-10T12:11:40.104Z,7.99
2023-01-10T12:14:22.910Z,8.05
2023-01-10T12:17:02.348Z,7.89
2023-01-10T12:19:35.105Z,7.96
2023-01-10T12:22:09.011Z,8.15
2023-01-10T12:24:46.827Z,8.48
2023-01-10T12:27:20.845Z,8.40
2023-01-10T12:30:02.259Z,8.51
2023-01-10T12:32:39.846Z,8.27
2023-01-10T12:35:19.892Z,8.52
2023-01-10T12:37:54.675Z,8.28
2023-01-10T12:40:38.832Z,8.18
2023-01-10T12:43:30.587Z,8.59
2023-01-10T12:46:26.425Z,8.81
2023-01-10T12:49:11.015Z,8.77
2023-01-10T12:51:45.823Z,8.53
2023-01-10T12:54:21.712Z,8.75
2023-01-10T12:56:53.513Z,8.99
2023-01-10T12:59:36.948Z,8.89
2023-01-10T13:02:16.328Z,9.00
2023-01-10T13:04:51.596Z,8.86
2023-01-10T13:07:35.221Z,9.03
2023-01-10T13:10:09.798Z,9.04
2023-01-10T13:12:45.655Z,8.93
2023-01-10T13:15:24.103Z,9.04
2023-01-10T13:18:02.455Z,9.16
2023-01-10T13:20:44.319Z,9.01
2023-01-10T13:23:34.178Z,9.02
2023-01-10T13:26:09.254Z,9.61
2023-01-10T13:28:42.691Z,9.40
2023-01-10T13:31:28.024Z,9.20
2023-01-10T13:34:02.570Z,9.52
2023-01-10T13:36:40.127Z,9.00
2023-01-10T13:39:29.824Z,9.08
2023-01-10T13:42:41.582Z,9.13
2023-01-10T13:45:27.089Z,9.10
2023-01-10T13:48:28.843Z,8.78
2023-01-10T13:51:16.033Z,8.76
2023-01-10T13:54:07.841Z,8.66
2023-01-10T13:56:42.551Z,8.82
2023-01-10T13:59:28.574Z,8.70
2023-01-10T14:02:15.989Z,9.20
2023-01-10T14:04:53.567Z,9.16
2023-01-10T14:07:31.908Z,9.06
2023-01-10T14:10:05.731Z,9.35
2023-01-10T14:12:49.684Z,8.77
2023-01-10T14:15:29.835Z,8.80
2023-01-10T14:18:04.402Z,8.73
2023-01-10T14:20:37.787Z,8.45
2023-01-10T14:23:11.204Z,8.41
2023-01-10T14:25:42.270Z,8.31
2023-01-10T14:28:26.621Z,8.37
2023-01-10T14:31:05.274Z,8.23
2023-01-10T14:33:37.003Z,8.35
2023-01-10T14:36:17.028Z,8.47
2023-01-10T14:38:49.468Z,8.35
2023-01-10T14:41:26.045Z,8.19
2023-01-10T14:44:04.926Z,8.31
2023-01-10T14:46:46.560Z,8.54
2023-01-10T14:49:24.975Z,8.44
2023-01-10T14:52:00.944Z,8.56
2023-01-10T14:54:32.099Z,8.65
2023-01-10T14:57:02.028Z,8.23
2023-01-10T14:59:38.022Z,8.23
2023-01-10T15:02:25.638Z,8.03
2023-01-10T15:04:58.439Z,8.12
2023-01-10T15:07:29.786Z,8.06
2023-01-10T15:10:06.088Z,8.19
2023-01-10T15:12:38.913Z,8.03
2023-01-10T15:15:19.708Z,7.98
2023-01-10T15:17:51.633Z,8.16
2023-01-10T15:20:25.016Z,8.02
2023-01-10T15:23:00.906Z,8.15
2023-01-10T15:25:38.138Z,7.88
2023-01-10T15:28:16.988Z,7.93
2023-01-10T15:30:50.536Z,7.83
2023-01-10T15:33:30.026Z,7.69
2023-01-10T15:36:06.533Z,7.71
2023-01-10T15:38:41.051Z,7.68
2023-01-10T15:41:11.704Z,7.67
2023-01-10T15:43:42.001Z,7.62
2023-01-10T15:46:21.908Z,7.63
2023-01-10T15:49:02.978Z,7.54
2023-01-10T15:51:37.262Z,7.43
2023-01-10T15:54:10.494Z,7.43
2023-01-10T15:56:44.415Z,7.37
2023-01-10T15:59:26.413Z,7.33
2023-01-10T16:02:03.682Z,7.51
2023-01-10T16:04:37.699Z,7.52
2023-01-10T16:07:11.367Z,7.52
2023-01-10T16:09:42.993Z,7.35
2023-01-10T16:12:39.820Z,7.28
2023-01-10T16:15:19.296Z,7.24
2023-01-10T16:17:52.686Z,7.27
2023-01-10T16:20:25.617Z,7.23
2023-01-10T16:22:56.993Z,7.49
2023-01-10T16:25:33.679Z,7.25
2023-01-10T16:28:04.073Z,7.26
2023-01-10T16:30:36.148Z,7.32
2023-01-10T16:33:16.380Z,7.44
2023-01-10T16:35:46.690Z,7.25
2023-01-10T16:38:17.870Z,7.16
2023-01-10T16:40:55.200Z,7.36
2023-01-10T16:43:22.837Z,7.36
2023-01-10T16:45:59.845Z,7.32
2023-01-10T16:48:34.668Z,7.41
2023-01-10T16:51:16.514Z,7.22
2023-01-10T16:53:46.601Z,7.40
2023-01-10T16:56:19.021Z,7.25
2023-01-10T16:58:50.116Z,7.28
2023-01-10T17:01:24.394Z,7.40
2023-01-10T17:03:57.912Z,7.23
2023-01-10T17:06:28.820Z,7.17
2023-01-10T17:08:58.814Z,7.26
2023-01-10T17:11:32.578Z,7.30
2023-01-10T17:14:05.282Z,7.29
2023-01-10T17:16:35.762Z,7.42
2023-01-10T17:19:08.207Z,7.21
2023-01-10T17:21:38.114Z,7.19
2023-01-10T17:24:09.698Z,7.21
2023-01-10T17:26:39.873Z,7.36
2023-01-10T17:29:09.718Z,7.39
2023-01-10T17:31:39.877Z,7.13
2023-01-10T17:34:12.483Z,7.18
2023-01-10T17:36:42.711Z,7.18
2023-01-10T17:39:12.678Z,7.34
2023-01-10T17:41:42.582Z,7.37
2023-01-10T17:44:12.789Z,7.43
2023-01-10T17:46:42.712Z,7.41
2023-01-10T17:49:15.464Z,7.24
2023-01-10T17:51:45.436Z,7.38
2023-01-10T17:54:15.987Z,7.50
2023-01-10T17:56:45.909Z,7.54
2023-01-10T17:59:15.869Z,7.39
2023-01-10T18:01:46.073Z,7.24
2023-01-10T18:04:18.647Z,7.16
2023-01-10T18:06:50.251Z,7.42
2023-01-10T18:09:20.222Z,7.21
2023-01-10T18:11:50.163Z,7.30
2023-01-10T18:14:32.561Z,7.28
2023-01-10T18:17:02.458Z,7.24
2023-01-10T18:19:35.016Z,7.29
2023-01-10T18:22:25.895Z,7.20
2023-01-10T18:24:56.169Z,7.42
2023-01-10T18:27:27.826Z,7.32
2023-01-10T18:29:58.122Z,7.37
2023-01-10T18:32:28.079Z,7.31
2023-01-10T18:35:00.579Z,7.38
2023-01-10T18:37:30.553Z,7.57
2023-01-10T18:40:00.838Z,7.50
2023-01-10T18:42:30.769Z,7.47
2023-01-10T18:45:00.778Z,7.40
2023-01-10T18:47:30.774Z,7.44
2023-01-10T18:50:03.516Z,7.49
2023-01-10T18:52:33.509Z,7.44
2023-01-10T18:55:03.563Z,7.38
2023-01-10T18:57:34.938Z,7.48
2023-01-10T19:00:05.656Z,7.49
2023-01-10T19:02:35.721Z,7.51
2023-01-10T19:05:09.878Z,7.55
2023-01-10T19:07:40.038Z,7.64
2023-01-10T19:10:11.628Z,7.60
2023-01-10T19:12:42.648Z,7.53
2023-01-10T19:15:13.871Z,7.45
2023-01-10T19:17:43.795Z,7.61
2023-01-10T19:20:16.495Z,7.56
2023-01-10T19:22:47.621Z,7.60
2023-01-10T19:25:17.753Z,7.66
2023-01-10T19:27:47.716Z,7.64
2023-01-10T19:30:17.939Z,7.59
2023-01-10T19:32:48.046Z,7.66
2023-01-10T19:35:20.811Z,7.64
2023-01-10T19:37:50.820Z,7.63
2023-01-10T19:40:21.405Z,7.68
2023-01-10T19:42:51.371Z,7.61
2023-01-10T19:45:21.308Z,7.71
2023-01-10T19:47:51.268Z,7.63
2023-01-10T19:50:24.072Z,7.74
2023-01-10T19:52:54.070Z,7.65
2023-01-10T19:55:23.997Z,7.73
2023-01-10T19:57:54.028Z,7.82
2023-01-10T20:00:24.290Z,7.79
2023-01-10T20:02:54.366Z,7.71
2023-01-10T20:05:27.712Z,7.69
2023-01-10T20:07:57.669Z,7.76
2023-01-10T20:10:27.714Z,7.66
2023-01-10T20:12:57.662Z,7.67
2023-01-10T20:15:27.587Z,7.75
2023-01-10T20:17:57.621Z,7.74
2023-01-10T20:20:31.131Z,7.73
2023-01-10T20:23:01.074Z,7.78
2023-01-10T20:25:30.985Z,7.77
2023-01-10T20:28:00.921Z,7.87
2023-01-10T20:30:30.998Z,7.74
2023-01-10T20:33:01.011Z,7.77
2023-01-10T20:35:33.688Z,7.86
2023-01-10T20:38:06.616Z,7.77
2023-01-10T20:40:36.569Z,7.71
2023-01-10T20:43:06.583Z,7.71
2023-01-10T20:45:37.111Z,7.73
2023-01-10T20:48:07.457Z,7.77
2023-01-10T20:50:40.080Z,7.67
2023-01-10T20:53:10.047Z,7.64
2023-01-10T20:55:40.826Z,7.56
2023-01-10T20:58:10.921Z,7.53
2023-01-10T21:00:40.976Z,7.48
2023-01-10T21:03:11.054Z,7.50
2023-01-10T21:05:43.684Z,7.44
2023-01-10T21:08:13.637Z,7.47
2023-01-10T21:10:45.905Z,7.47
2023-01-10T21:13:16.414Z,7.39
2023-01-10T21:15:48.263Z,7.48
2023-01-10T21:18:19.213Z,7.60
2023-01-10T21:20:51.795Z,7.49
2023-01-10T21:23:21.711Z,7.47
2023-01-10T21:25:51.898Z,7.48
2023-01-10T21:28:23.200Z,7.49
2023-01-10T21:30:55.707Z,7.62
2023-01-10T21:33:25.653Z,7.62
2023-01-10T21:36:01.362Z,7.70
2023-01-10T21:38:32.832Z,7.76
2023-01-10T21:41:10.529Z,7.78
2023-01-10T21:43:44.470Z,7.75
2023-01-10T21:46:14.894Z,7.90
2023-01-10T21:48:44.853Z,7.99
2023-01-10T21:51:17.394Z,7.87
2023-01-10T21:53:47.268Z,7.86
2023-01-10T21:56:17.251Z,8.00
2023-01-10T21:58:48.161Z,7.94
2023-01-10T22:01:18.751Z,7.97
2023-01-10T22:03:49.625Z,8.00
2023-01-10T22:06:22.280Z,8.03
2023-01-10T22:08:53.106Z,8.05
2023-01-10T22:11:23.058Z,8.03
2023-01-10T22:13:54.483Z,8.03
2023-01-10T22:16:24.374Z,8.12
2023-01-10T22:18:54.309Z,8.13
2023-01-10T22:21:26.949Z,8.22
2023-01-10T22:23:56.847Z,8.34
2023-01-10T22:26:27.499Z,8.33
2023-01-10T22:28:57.768Z,8.40
2023-01-10T22:31:27.752Z,8.43
2023-01-10T22:33:57.777Z,8.50
2023-01-10T22:36:30.608Z,8.40
2023-01-10T22:39:00.491Z,8.46
2023-01-10T22:41:30.623Z,8.47
2023-01-10T22:44:00.574Z,8.53
2023-01-10T22:46:30.882Z,8.51
2023-01-10T22:49:00.993Z,8.49
2023-01-10T22:51:35.629Z,8.50
2023-01-10T22:54:05.563Z,8.57
2023-01-10T22:56:37.372Z,8.62
2023-01-10T22:59:07.229Z,8.61
2023-01-10T23:01:37.252Z,8.60
2023-01-10T23:04:07.606Z,8.64
2023-01-10T23:06:40.173Z,8.64
2023-01-10T23:09:10.051Z,8.69
2023-01-10T23:11:39.940Z,8.74
2023-01-10T23:14:09.931Z,8.65
2023-01-10T23:16:39.899Z,8.66
2023-01-10T23:19:09.762Z,8.71
2023-01-10T23:21:42.446Z,8.72
2023-01-10T23:24:14.998Z,8.76
2023-01-10T23:26:44.912Z,8.69
2023-01-10T23:29:14.943Z,8.71
2023-01-10T23:31:45.078Z,8.70
2023-01-10T23:34:15.068Z,8.62
2023-01-10T23:36:47.548Z,8.70
2023-01-10T23:39:19.090Z,8.77
2023-01-10T23:41:49.020Z,8.72
2023-01-10T23:44:18.898Z,8.72
2023-01-10T23:46:48.849Z,8.74
2023-01-10T23:49:18.733Z,8.84
2023-01-10T23:51:51.184Z,8.80
2023-01-10T23:54:21.035Z,8.88
2023-01-10T23:56:53.630Z,8.78
2023-01-10T23:59:24.399Z,8.82
